Antarctic — D5BM7 — position and weather

sailwx.info

Track history (hours):
 
Tides and Currents Weather Stations Pressure Air Temp Water Temp Dewpoint Dewpoint Depression Visibility Wind Speed Wind Dir Waves Ship Positions

Antarctic

Last reported at 2018-Apr-19 06:27 UTC. Time now 2018-Apr-21 02:15 UTC.
Position N 49°16' W 004°46'.

Length 274 m; draft 17 m.

Type: Tanker. MMSI: 636015560.

Date/timePositionNaut miles runAvg speedWind from/ knotsBaromVisibWave heightAir tempDewpointWater temp
2018-Apr-19 06:27N 49°16' W 004°46'6 9.5
2018-Apr-19 05:51N 49°19' W 004°39'3 9.6
2018-Apr-19 05:30N 49°21' W 004°34'5 9.7
2018-Apr-19 05:00N 49°23' W 004°28'610.3
2018-Apr-19 04:25N 49°27' W 004°20'811.3
2018-Apr-19 03:41N 49°31' W 004°10'412.0
2018-Apr-19 03:20N 49°34' W 004°04'512.6
2018-Apr-19 02:55N 49°36' W 003°57'513.1
2018-Apr-19 02:30N 49°39' W 003°50'713.5
2018-Apr-19 02:00N 49°43' W 003°41'713.6
2018-Apr-19 01:30N 49°46' W 003°32'713.3
2018-Apr-19 01:00N 49°49' W 003°23'612.9
2018-Apr-19 00:30N 49°53' W 003°15'612.2
2018-Apr-19 00:00N 49°56' W 003°06'611.4
2018-Apr-18 23:30N 49°59' W 002°59'810.3
2018-Apr-18 22:46N 50°01' W 002°48'3 9.9
2018-Apr-18 22:28N 50°02' W 002°43'4 9.2
2018-Apr-18 22:00N 50°03' W 002°37'4 8.7
2018-Apr-18 21:30N 50°04' W 002°30'4 8.1
2018-Apr-18 20:58N 50°05' W 002°24'4 7.8
2018-Apr-18 20:27N 50°06' W 002°18'5 7.8
2018-Apr-18 19:46N 50°08' W 002°10'2 8.8
2018-Apr-18 19:30N 50°08' W 002°06'5 9.6
2018-Apr-18 19:00N 50°10' W 001°59'611.0
2018-Apr-18 18:30N 50°11' W 001°51'612.7
2018-Apr-18 18:00N 50°13' W 001°41'714.1
2018-Apr-18 17:31N 50°15' W 001°31'815.0
2018-Apr-18 17:00N 50°17' W 001°19'815.9
2018-Apr-18 16:30N 50°19' W 001°07'816.3
2018-Apr-18 16:00N 50°21' W 000°55'816.0
2018-Apr-18 15:30N 50°23' W 000°43'815.5
2018-Apr-18 15:00N 50°25' W 000°31'714.7
2018-Apr-18 14:31N 50°27' W 000°20'714.0
2018-Apr-18 14:00N 50°29' W 000°09'713.4
2018-Apr-18 13:30N 50°31' E 000°01'612.8
2018-Apr-18 13:00N 50°33' E 000°11'612.1
2018-Apr-18 12:30N 50°34' E 000°20'611.6
2018-Apr-18 12:00N 50°36' E 000°28'511.0
2018-Apr-18 11:30N 50°38' E 000°36'511.0
2018-Apr-18 11:00N 50°41' E 000°44'611.2
2018-Apr-18 10:30N 50°44' E 000°51'611.7
2018-Apr-18 10:00N 50°47' E 000°59'612.6
2018-Apr-18 09:30N 50°51' E 001°06'713.8
2018-Apr-18 09:00N 50°56' E 001°14'714.9
2018-Apr-18 08:31N 51°02' E 001°22'815.5
2018-Apr-18 08:00N 51°06' E 001°32'815.2
2018-Apr-18 07:31N 51°11' E 001°41'713.9
2018-Apr-18 07:00N 51°17' E 001°48'612.8
2018-Apr-18 06:31N 51°22' E 001°53'612.1
2018-Apr-18 06:00N 51°27' E 001°58'611.7
2018-Apr-18 05:31N 51°32' E 002°04'611.2
2018-Apr-18 05:01N 51°36' E 002°09'510.5
2018-Apr-18 04:31N 51°41' E 002°14'510.2
2018-Apr-18 03:59N 51°45' E 002°20'510.4
2018-Apr-18 03:30N 51°48' E 002°25'510.1
2018-Apr-18 03:01N 51°52' E 002°31'510.0
2018-Apr-18 02:30N 51°55' E 002°37'611.0
2018-Apr-18 01:56N 51°57' E 002°47'2411.9
2018-Apr-17 23:55N 51°59' E 003°26'512.3
2018-Apr-17 23:30N 52°00' E 003°34'613.2
2018-Apr-17 23:00N 52°01' E 003°45'510.2
2018-Apr-17 22:30N 52°02' E 003°53'5 9.8
2018-Apr-17 22:00N 52°00' E 004°00'5 9.8
2018-Apr-17 21:30N 51°58' E 004°08'2 4.6
2018-Apr-17 21:00N 51°56' E 004°10'1 2.4
2018-Apr-17 20:30N 51°56' E 004°12'0 0.1
2018-Apr-17 19:59N 51°56' E 004°12'0 0.0
2018-Apr-17 19:29N 51°56' E 004°12'0 0.0
2018-Apr-17 18:54N 51°56' E 004°12'0 0.0
2018-Apr-17 18:30N 51°56' E 004°12'0 0.0
2018-Apr-17 18:00N 51°56' E 004°12'0 0.0
2018-Apr-17 17:30N 51°56' E 004°12'0 0.0
2018-Apr-17 17:00N 51°56' E 004°12'0 0.0
2018-Apr-17 16:30N 51°56' E 004°12'0 0.0
2018-Apr-17 16:00N 51°56' E 004°12'0 0.0
2018-Apr-17 15:30N 51°56' E 004°12'0 0.0
2018-Apr-17 15:00N 51°56' E 004°12'0 0.0
2018-Apr-17 14:30N 51°56' E 004°12'0 0.0
2018-Apr-17 14:00N 51°56' E 004°12'0 0.0
2018-Apr-17 13:27N 51°56' E 004°12'0 0.0
2018-Apr-17 12:57N 51°56' E 004°12'0 0.0
2018-Apr-17 12:30N 51°56' E 004°12'0 0.0
2018-Apr-17 12:00N 51°56' E 004°12'0 0.0
2018-Apr-17 11:30N 51°56' E 004°12'0 0.0
2018-Apr-17 11:00N 51°56' E 004°12'0 0.0
2018-Apr-17 10:30N 51°56' E 004°12'0 0.0
2018-Apr-17 10:00N 51°56' E 004°12'0 0.0
2018-Apr-17 09:30N 51°56' E 004°12'0 0.0
2018-Apr-17 09:00N 51°56' E 004°12'0 0.0
2018-Apr-17 08:30N 51°56' E 004°12'0 0.0
2018-Apr-17 08:00N 51°56' E 004°12'0 0.0
2018-Apr-17 07:30N 51°56' E 004°12'0 0.0
2018-Apr-17 07:00N 51°56' E 004°12'0 0.0
2018-Apr-17 06:27N 51°56' E 004°12'0 0.0
2018-Apr-17 06:00N 51°56' E 004°12'0 0.0
2018-Apr-17 05:30N 51°56' E 004°12'0 0.0
2018-Apr-17 05:00N 51°56' E 004°12'0 0.0
2018-Apr-17 04:27N 51°56' E 004°12'0 0.0
2018-Apr-17 04:00N 51°56' E 004°12'0 0.0
2018-Apr-17 03:30N 51°56' E 004°12'0 0.0
2018-Apr-17 02:57N 51°56' E 004°12'0 0.0
2018-Apr-17 02:30N 51°56' E 004°12'0 0.0
2018-Apr-17 02:00N 51°56' E 004°12'0 0.0
2018-Apr-17 01:30N 51°56' E 004°12'0 0.0
2018-Apr-17 01:00N 51°56' E 004°12'0 0.0
2018-Apr-17 00:30N 51°56' E 004°12'0 0.0
2018-Apr-17 00:00N 51°56' E 004°12'0 0.0
2018-Apr-16 23:30N 51°56' E 004°12'0 0.0
2018-Apr-16 23:00N 51°56' E 004°12'0 0.0
2018-Apr-16 22:27N 51°56' E 004°12'0 0.0
2018-Apr-16 22:00N 51°56' E 004°12'0 0.0
2018-Apr-16 21:30N 51°56' E 004°12'0 0.0
2018-Apr-16 21:00N 51°56' E 004°12'0 0.0
2018-Apr-16 20:30N 51°56' E 004°12'0 0.0
2018-Apr-16 20:00N 51°56' E 004°12'0 0.0
2018-Apr-16 19:27N 51°56' E 004°12'0 0.0
2018-Apr-16 19:00N 51°56' E 004°12'0 0.0
2018-Apr-16 18:30N 51°56' E 004°12'0 0.0
2018-Apr-16 18:00N 51°56' E 004°12'0 0.0
2018-Apr-16 17:30N 51°56' E 004°12'0 0.0
2018-Apr-16 17:00N 51°56' E 004°12'0 0.0
2018-Apr-16 16:30N 51°56' E 004°12'0 0.0
2018-Apr-16 16:00N 51°56' E 004°12'0 0.0
2018-Apr-16 15:30N 51°56' E 004°12'0 0.0
2018-Apr-16 14:57N 51°56' E 004°12'0 0.0
2018-Apr-16 14:30N 51°56' E 004°12'0 0.0
2018-Apr-16 14:00N 51°56' E 004°12'0 0.0
2018-Apr-16 13:30N 51°56' E 004°12'0 0.0
2018-Apr-16 12:57N 51°56' E 004°12'0 0.0
2018-Apr-16 12:30N 51°56' E 004°12'0 0.0
2018-Apr-16 12:00N 51°56' E 004°12'0 0.0
2018-Apr-16 11:30N 51°56' E 004°12'0 0.0
2018-Apr-16 11:00N 51°56' E 004°12'0 0.0
2018-Apr-16 10:30N 51°56' E 004°12'0 0.0
2018-Apr-16 10:00N 51°56' E 004°12'0 0.0
2018-Apr-16 09:30N 51°56' E 004°12'0 0.0
2018-Apr-16 09:00N 51°56' E 004°12'0 0.0
2018-Apr-16 08:30N 51°56' E 004°12'0 0.0
2018-Apr-16 08:00N 51°56' E 004°12'0 0.0
2018-Apr-16 07:30N 51°56' E 004°12'0 0.0
2018-Apr-16 07:00N 51°56' E 004°12'0 0.0
2018-Apr-16 06:30N 51°56' E 004°12'0 0.0
2018-Apr-16 06:00N 51°56' E 004°12'0 0.0
2018-Apr-16 05:30N 51°56' E 004°12'0 0.0
2018-Apr-16 05:00N 51°56' E 004°12'0 0.1
2018-Apr-16 04:30N 51°56' E 004°12'1 1.3
2018-Apr-16 04:00N 51°56' E 004°11'4 8.1
2018-Apr-16 03:30N 51°58' E 004°06'2 4.9
2018-Apr-16 03:01N 51°60' E 004°02'5 9.2
2018-Apr-16 02:30N 51°58' E 004°09'3 6.9
2018-Apr-16 02:00N 51°56' E 004°14'3 5.5
2018-Apr-16 01:30N 51°54' E 004°17'3 5.0
2018-Apr-16 01:00N 51°54' E 004°21'0 0.5
2018-Apr-16 00:29N 51°54' E 004°22'0 0.0
2018-Apr-15 23:59N 51°54' E 004°22'0 0.0
2018-Apr-15 23:29N 51°54' E 004°22'0 0.0
2018-Apr-15 22:59N 51°54' E 004°22'0 0.0
2018-Apr-15 22:29N 51°54' E 004°22'0 0.0
2018-Apr-15 22:00N 51°54' E 004°22'0 0.0
2018-Apr-15 21:30N 51°54' E 004°22'0 0.0
2018-Apr-15 21:00N 51°54' E 004°22'0 0.0
2018-Apr-15 20:30N 51°54' E 004°22'0 0.0
2018-Apr-15 20:00N 51°54' E 004°22'0 0.0
2018-Apr-15 19:30N 51°54' E 004°22'0 0.0
2018-Apr-15 19:00N 51°54' E 004°22'0 0.0
2018-Apr-15 18:30N 51°54' E 004°22'0 0.0
2018-Apr-15 18:00N 51°54' E 004°22'0 0.0
2018-Apr-15 17:30N 51°54' E 004°22'0 0.0
2018-Apr-15 17:01N 51°54' E 004°22'0 0.0
2018-Apr-15 16:00N 51°54' E 004°22'0 0.0
2018-Apr-15 15:30N 51°54' E 004°22'0 0.0
2018-Apr-15 15:00N 51°54' E 004°22'0 0.0
2018-Apr-15 14:31N 51°54' E 004°22'0 0.0
2018-Apr-15 14:00N 51°54' E 004°22'0 0.0
2018-Apr-15 13:30N 51°54' E 004°22'0 0.0
2018-Apr-15 13:00N 51°54' E 004°22'0 0.0
2018-Apr-15 12:30N 51°54' E 004°22'0 0.0
2018-Apr-15 12:00N 51°54' E 004°22'0 0.0
2018-Apr-15 11:31N 51°54' E 004°22'0 0.0
2018-Apr-15 11:00N 51°54' E 004°22'0 0.0
2018-Apr-15 10:30N 51°54' E 004°22'0 0.0
2018-Apr-15 10:00N 51°54' E 004°22'0 0.0
2018-Apr-15 09:30N 51°54' E 004°22'0 0.0
2018-Apr-15 09:00N 51°54' E 004°22'0 0.0
2018-Apr-15 08:30N 51°54' E 004°22'0 0.0
2018-Apr-15 08:00N 51°54' E 004°22'0 0.0
2018-Apr-15 07:31N 51°54' E 004°22'0 0.0
2018-Apr-15 07:00N 51°54' E 004°22'0 0.0
2018-Apr-15 06:30N 51°54' E 004°22'0 0.0
2018-Apr-15 06:01N 51°54' E 004°22'0 0.0
2018-Apr-15 05:30N 51°54' E 004°22'0 0.0
2018-Apr-15 05:01N 51°54' E 004°22'0 0.0
2018-Apr-15 04:29N 51°54' E 004°22'0 0.0
2018-Apr-15 04:00N 51°54' E 004°22'0 0.0
2018-Apr-15 03:30N 51°54' E 004°22'0 0.0
2018-Apr-15 03:01N 51°54' E 004°22'0 0.0
2018-Apr-15 02:30N 51°54' E 004°22'0 0.0
2018-Apr-15 02:01N 51°54' E 004°22'0 0.0
2018-Apr-15 01:30N 51°54' E 004°22'0 0.0
2018-Apr-15 01:00N 51°54' E 004°22'0 0.0
2018-Apr-15 00:30N 51°54' E 004°22'0 0.0
2018-Apr-15 00:01N 51°54' E 004°22'0 0.0
2018-Apr-14 23:30N 51°54' E 004°22'0 0.0
2018-Apr-14 23:00N 51°54' E 004°22'0 0.0
2018-Apr-14 22:30N 51°54' E 004°22'0 0.0
2018-Apr-14 22:00N 51°54' E 004°22'0 0.0
2018-Apr-14 21:30N 51°54' E 004°22'0 0.0
2018-Apr-14 21:00N 51°54' E 004°22'0 0.0
2018-Apr-14 20:31N 51°54' E 004°22'0 0.0
2018-Apr-14 20:00N 51°54' E 004°22'0 0.0
2018-Apr-14 19:30N 51°54' E 004°22'0 0.0
2018-Apr-14 19:00N 51°54' E 004°22'0 0.0
2018-Apr-14 18:30N 51°54' E 004°22'0 0.0
2018-Apr-14 18:00N 51°54' E 004°22'0 0.0
2018-Apr-14 17:30N 51°54' E 004°22'0 0.0
2018-Apr-14 17:00N 51°54' E 004°22'0 0.0
2018-Apr-14 16:30N 51°54' E 004°22'0 0.0
2018-Apr-14 16:00N 51°54' E 004°22'0 0.1
2018-Apr-14 15:30N 51°54' E 004°21'0 0.9
2018-Apr-14 15:00N 51°54' E 004°21'3 5.5
2018-Apr-14 14:31N 51°54' E 004°16'3 5.8
2018-Apr-14 14:01N 51°56' E 004°13'3 6.5
2018-Apr-14 13:30N 51°58' E 004°09'3 6.0
2018-Apr-14 13:00N 51°59' E 004°04'3 5.2
2018-Apr-14 12:30N 52°00' E 004°00'3 6.2
2018-Apr-14 12:00N 51°59' E 004°05'4 8.8
2018-Apr-14 11:30N 51°56' E 004°11'2 3.6
2018-Apr-14 11:00N 51°55' E 004°13'0 0.0
2018-Apr-14 10:28N 51°55' E 004°13'0 0.0
2018-Apr-14 09:58N 51°55' E 004°13'0 0.0
2018-Apr-14 09:31N 51°55' E 004°13'0 0.0
2018-Apr-14 09:01N 51°55' E 004°13'0 0.0
2018-Apr-14 08:31N 51°55' E 004°13'0 0.0
2018-Apr-14 08:00N 51°55' E 004°13'0 0.0
2018-Apr-14 07:30N 51°55' E 004°13'0 0.0
2018-Apr-14 07:01N 51°55' E 004°13'0 0.0
2018-Apr-14 06:30N 51°55' E 004°13'0 0.0
2018-Apr-14 06:00N 51°55' E 004°13'0 0.0
2018-Apr-14 05:30N 51°55' E 004°13'0 0.0
2018-Apr-14 05:01N 51°55' E 004°13'0 0.0
2018-Apr-14 04:31N 51°55' E 004°13'0 0.0
2018-Apr-14 04:00N 51°55' E 004°13'0 0.0
2018-Apr-14 03:30N 51°55' E 004°13'0 0.0
2018-Apr-14 03:00N 51°55' E 004°13'0 0.0
2018-Apr-14 02:30N 51°55' E 004°13'0 0.0
2018-Apr-14 02:01N 51°55' E 004°13'0 0.0
2018-Apr-14 01:31N 51°55' E 004°13'0 0.0
2018-Apr-14 01:00N 51°55' E 004°13'0 0.0
2018-Apr-14 00:30N 51°55' E 004°13'0 0.0
2018-Apr-14 00:00N 51°55' E 004°13'0 0.0
2018-Apr-13 23:31N 51°55' E 004°13'0 0.0
2018-Apr-13 23:00N 51°55' E 004°13'0 0.0
2018-Apr-13 22:30N 51°55' E 004°13'0 0.0
2018-Apr-13 22:01N 51°55' E 004°13'0 0.0
2018-Apr-13 21:30N 51°55' E 004°13'0 0.0
2018-Apr-13 21:00N 51°55' E 004°13'0 0.0
2018-Apr-13 20:01N 51°55' E 004°13'0 0.0
2018-Apr-13 19:00N 51°55' E 004°13'0 0.0
2018-Apr-13 18:00N 51°55' E 004°13'0 0.0
2018-Apr-13 17:30N 51°55' E 004°13'0 0.0
2018-Apr-13 17:01N 51°55' E 004°13'0 0.0
2018-Apr-13 16:30N 51°55' E 004°13'0 0.0
2018-Apr-13 16:00N 51°55' E 004°13'0 0.0
2018-Apr-13 15:00N 51°55' E 004°13'0 0.0
2018-Apr-13 14:00N 51°55' E 004°13'0 0.0
2018-Apr-13 12:30N 51°55' E 004°13'0 0.0
2018-Apr-13 12:00N 51°55' E 004°13'0 0.0
2018-Apr-13 11:30N 51°55' E 004°13'0 0.0
2018-Apr-13 10:30N 51°55' E 004°13'0 0.0
2018-Apr-13 10:00N 51°55' E 004°13'0 0.0
2018-Apr-13 09:30N 51°55' E 004°13'0 0.0
2018-Apr-13 09:00N 51°55' E 004°13'0 0.0
2018-Apr-13 08:30N 51°55' E 004°13'0 0.0
2018-Apr-13 08:01N 51°55' E 004°13'0 0.0
2018-Apr-13 07:31N 51°55' E 004°13'0 0.0
2018-Apr-13 07:00N 51°55' E 004°13'0 0.0
2018-Apr-13 06:30N 51°55' E 004°13'0 0.0
2018-Apr-13 06:00N 51°55' E 004°13'0 0.0
2018-Apr-13 05:30N 51°55' E 004°13'0 0.0
2018-Apr-13 05:00N 51°55' E 004°13'0 0.0
2018-Apr-13 04:30N 51°55' E 004°13'0 0.0
2018-Apr-13 04:00N 51°55' E 004°13'0 0.0
2018-Apr-13 03:30N 51°55' E 004°13'0 0.0
2018-Apr-13 03:01N 51°55' E 004°13'0 0.0
2018-Apr-13 02:30N 51°55' E 004°13'0 0.0
2018-Apr-13 02:00N 51°55' E 004°13'0 0.0
2018-Apr-13 01:30N 51°55' E 004°13'0 0.0
2018-Apr-13 01:01N 51°55' E 004°13'0 0.0
2018-Apr-13 00:31N 51°55' E 004°13'0 0.0
2018-Apr-13 00:00N 51°55' E 004°13'0 0.0
2018-Apr-12 23:31N 51°55' E 004°13'0 0.0
2018-Apr-12 23:00N 51°55' E 004°13'0 0.0
2018-Apr-12 22:30N 51°55' E 004°13'0 0.0
2018-Apr-12 21:59N 51°55' E 004°13'0 0.0
2018-Apr-12 21:31N 51°55' E 004°13'0 0.0
2018-Apr-12 21:00N 51°55' E 004°13'0 0.0
2018-Apr-12 20:31N 51°55' E 004°13'0 0.0
2018-Apr-12 20:00N 51°55' E 004°13'0 0.0
2018-Apr-12 19:31N 51°55' E 004°13'0 0.0
2018-Apr-12 19:01N 51°55' E 004°13'0 0.0
2018-Apr-12 18:31N 51°55' E 004°13'0 0.0
2018-Apr-12 18:00N 51°55' E 004°13'0 0.0
2018-Apr-12 17:30N 51°55' E 004°13'0 0.0
2018-Apr-12 17:01N 51°55' E 004°13'0 0.0
2018-Apr-12 16:31N 51°55' E 004°13'0 0.0
2018-Apr-12 16:00N 51°55' E 004°13'0 0.0
2018-Apr-12 15:30N 51°55' E 004°13'0 0.0
2018-Apr-12 15:00N 51°55' E 004°13'0 0.0
2018-Apr-12 14:30N 51°55' E 004°13'0 0.0
2018-Apr-12 14:00N 51°55' E 004°13'0 0.0
2018-Apr-12 13:31N 51°55' E 004°13'0 0.0
2018-Apr-12 13:01N 51°55' E 004°13'0 0.0
2018-Apr-12 12:30N 51°55' E 004°13'0 0.0
2018-Apr-12 12:01N 51°55' E 004°13'0 0.0
2018-Apr-12 11:31N 51°55' E 004°13'0 0.0
2018-Apr-12 11:00N 51°55' E 004°13'0 0.0
2018-Apr-12 10:30N 51°55' E 004°13'0 0.0
2018-Apr-12 10:00N 51°55' E 004°13'0 0.0
2018-Apr-12 09:30N 51°55' E 004°13'0 0.0
2018-Apr-12 09:01N 51°55' E 004°13'0 0.0
2018-Apr-12 08:30N 51°55' E 004°13'0 0.0
2018-Apr-12 08:01N 51°55' E 004°13'0 0.0
2018-Apr-12 07:31N 51°55' E 004°13'0 0.0
2018-Apr-12 07:00N 51°55' E 004°13'0 0.0
2018-Apr-12 06:30N 51°55' E 004°13'0 0.0
2018-Apr-12 06:01N 51°55' E 004°13'0 0.0
2018-Apr-12 05:30N 51°55' E 004°13'0 0.0
2018-Apr-12 05:01N 51°55' E 004°13'0 0.0
2018-Apr-12 04:31N 51°55' E 004°13'0 0.0
2018-Apr-12 04:00N 51°55' E 004°13'0 0.0
2018-Apr-12 03:30N 51°55' E 004°13'0 0.0
2018-Apr-12 03:00N 51°55' E 004°13'0 0.0
2018-Apr-12 02:31N 51°55' E 004°13'0 0.0
2018-Apr-12 02:01N 51°55' E 004°13'0 0.0
2018-Apr-12 01:31N 51°55' E 004°13'0 0.0
2018-Apr-12 01:01N 51°55' E 004°13'0 0.1
2018-Apr-12 00:31N 51°55' E 004°13'0 0.8
2018-Apr-12 00:00N 51°55' E 004°12'2 4.3
2018-Apr-11 23:30N 51°57' E 004°10'3 5.8
2018-Apr-11 23:00N 51°58' E 004°06'611.9
2018-Apr-11 22:30N 52°00' E 003°57'611.9
2018-Apr-11 22:00N 52°02' E 003°47'510.6
2018-Apr-11 21:30N 52°07' E 003°43'4 8.8
2018-Apr-11 21:00N 52°10' E 003°39'0 0.3
2018-Apr-11 20:29N 52°10' E 003°39'0 0.1
2018-Apr-11 19:59N 52°10' E 003°39'0 0.0
2018-Apr-11 19:29N 52°10' E 003°39'0 0.0
2018-Apr-11 18:59N 52°10' E 003°39'0 0.0
2018-Apr-11 18:29N 52°10' E 003°39'0 0.0
2018-Apr-11 17:59N 52°10' E 003°39'0 0.0
2018-Apr-11 17:26N 52°10' E 003°39'0 0.0
2018-Apr-11 16:56N 52°10' E 003°39'0 0.0
2018-Apr-11 16:29N 52°10' E 003°39'0 0.0
2018-Apr-11 15:59N 52°10' E 003°39'0 0.1
2018-Apr-11 15:29N 52°10' E 003°39'0 0.1
2018-Apr-11 14:56N 52°10' E 003°39'0 0.3
2018-Apr-11 14:17N 52°10' E 003°39'0 0.3
2018-Apr-11 13:59N 52°10' E 003°39'0 0.1
2018-Apr-11 13:29N 52°10' E 003°39'0 0.1
2018-Apr-11 12:47N 52°10' E 003°39'0 0.0
2018-Apr-11 12:23N 52°10' E 003°39'0 0.0
2018-Apr-11 11:56N 52°10' E 003°39'0 0.1
2018-Apr-11 11:29N 52°10' E 003°39'0 0.1
2018-Apr-11 10:56N 52°10' E 003°39'0 0.0
2018-Apr-11 10:26N 52°10' E 003°39'0 0.4
2018-Apr-11 09:56N 52°10' E 003°39'0 0.3
2018-Apr-11 09:29N 52°10' E 003°39'0 0.1
2018-Apr-11 08:59N 52°10' E 003°39'0 0.0
2018-Apr-11 08:29N 52°10' E 003°39'0 0.0
2018-Apr-11 07:59N 52°10' E 003°39'0 0.0
2018-Apr-11 07:26N 52°10' E 003°39'0 0.0
2018-Apr-11 06:59N 52°10' E 003°39'0 0.0
2018-Apr-11 06:26N 52°10' E 003°39'0 0.0
2018-Apr-11 05:56N 52°10' E 003°39'0 0.0
2018-Apr-11 05:29N 52°10' E 003°39'0 0.0
2018-Apr-11 04:59N 52°10' E 003°39'0 0.0
2018-Apr-11 04:29N 52°10' E 003°39'0 0.1
2018-Apr-11 03:59N 52°10' E 003°39'0 0.0
2018-Apr-11 03:29N 52°10' E 003°39'0 0.0
2018-Apr-11 02:59N 52°10' E 003°39'0 0.1
2018-Apr-11 02:20N 52°10' E 003°39'0 0.2
2018-Apr-11 01:50N 52°10' E 003°39'0 0.3
2018-Apr-11 01:26N 52°10' E 003°39'0 0.2
2018-Apr-11 00:59N 52°10' E 003°39'0 0.0
2018-Apr-11 00:26N 52°10' E 003°39'0 0.0
2018-Apr-10 23:59N 52°10' E 003°39'0 0.3
2018-Apr-10 23:29N 52°10' E 003°39'0 0.2
2018-Apr-10 22:56N 52°10' E 003°39'0 0.1
2018-Apr-10 22:29N 52°10' E 003°39'0 0.1
2018-Apr-10 21:59N 52°10' E 003°39'0 0.0
2018-Apr-10 21:29N 52°10' E 003°39'0 0.2
2018-Apr-10 20:59N 52°10' E 003°39'0 0.2
2018-Apr-10 20:29N 52°10' E 003°39'0 0.1
2018-Apr-10 19:53N 52°10' E 003°39'0 0.0
2018-Apr-10 19:29N 52°10' E 003°39'0 0.1
2018-Apr-10 18:59N 52°10' E 003°39'0 0.0
2018-Apr-10 18:29N 52°10' E 003°39'0 0.0
2018-Apr-10 17:59N 52°10' E 003°39'0 0.0
2018-Apr-10 17:29N 52°10' E 003°39'0 0.0
2018-Apr-10 16:59N 52°10' E 003°39'0 0.1
2018-Apr-10 16:29N 52°10' E 003°39'0 0.0
2018-Apr-10 15:59N 52°10' E 003°39'0 0.1
2018-Apr-10 15:26N 52°10' E 003°39'0 0.1
2018-Apr-10 14:59N 52°10' E 003°39'0 0.1
2018-Apr-10 14:29N 52°10' E 003°39'0 0.1
2018-Apr-10 13:59N 52°10' E 003°39'0 0.1
2018-Apr-10 13:29N 52°10' E 003°39'0 0.2
2018-Apr-10 12:59N 52°10' E 003°39'0 0.2
2018-Apr-10 12:29N 52°10' E 003°39'0 0.0
2018-Apr-10 11:59N 52°10' E 003°39'0 0.0
2018-Apr-10 11:29N 52°10' E 003°39'0 0.0
2018-Apr-10 10:56N 52°10' E 003°39'0 0.0
2018-Apr-10 10:02N 52°10' E 003°39'0 0.0
2018-Apr-10 09:59N 52°10' E 003°39'0 0.0
2018-Apr-10 09:23N 52°10' E 003°39'0 0.0
2018-Apr-10 08:53N 52°10' E 003°39'0 0.0
2018-Apr-10 08:29N 52°10' E 003°39'0 0.1
2018-Apr-10 07:59N 52°10' E 003°39'0 0.4
2018-Apr-10 07:29N 52°10' E 003°39'0 0.2
2018-Apr-10 06:56N 52°10' E 003°39'0 0.1
2018-Apr-10 06:29N 52°10' E 003°39'0 0.0
2018-Apr-10 05:59N 52°10' E 003°39'0 0.1
2018-Apr-10 05:29N 52°10' E 003°39'0 0.0
2018-Apr-10 04:59N 52°10' E 003°39'0 0.0
2018-Apr-10 04:29N 52°10' E 003°39'0 0.0
2018-Apr-10 03:59N 52°10' E 003°39'0 0.0
2018-Apr-10 03:29N 52°10' E 003°39'0 0.0
2018-Apr-10 02:59N 52°10' E 003°39'0 0.0
2018-Apr-10 02:29N 52°10' E 003°39'0 0.0
2018-Apr-10 01:59N 52°10' E 003°39'0 0.0
2018-Apr-10 01:29N 52°10' E 003°39'0 0.1
2018-Apr-10 00:59N 52°10' E 003°39'0 0.1
2018-Apr-10 00:29N 52°10' E 003°39'0 0.0
2018-Apr-09 23:59N 52°10' E 003°39'0 0.1
2018-Apr-09 23:29N 52°10' E 003°39'0 0.1
2018-Apr-09 22:59N 52°10' E 003°39'0 0.1
2018-Apr-09 22:29N 52°10' E 003°39'0 0.0
2018-Apr-09 21:59N 52°10' E 003°39'0 0.1
2018-Apr-09 21:29N 52°10' E 003°39'0 0.1
2018-Apr-09 20:59N 52°10' E 003°39'0 0.1
2018-Apr-09 20:29N 52°10' E 003°39'0 0.1
2018-Apr-09 19:59N 52°10' E 003°39'0 0.2
2018-Apr-09 19:29N 52°10' E 003°38'0 0.2
2018-Apr-09 18:59N 52°10' E 003°39'0 0.0
2018-Apr-09 18:20N 52°10' E 003°39'0 0.0
2018-Apr-09 17:56N 52°10' E 003°39'0 0.0
2018-Apr-09 17:29N 52°10' E 003°39'0 0.0
2018-Apr-09 16:59N 52°10' E 003°39'0 0.0
2018-Apr-09 16:29N 52°10' E 003°39'0 0.0
2018-Apr-09 15:50N 52°10' E 003°39'0 0.0
2018-Apr-09 15:26N 52°10' E 003°39'0 0.0
2018-Apr-09 14:56N 52°10' E 003°39'0 0.0
2018-Apr-09 14:29N 52°10' E 003°39'0 0.0
2018-Apr-09 13:59N 52°10' E 003°39'0 0.0
2018-Apr-09 13:29N 52°10' E 003°39'0 0.0
2018-Apr-09 12:59N 52°10' E 003°39'0 0.0
2018-Apr-09 12:23N 52°10' E 003°39'0 0.0
2018-Apr-09 11:59N 52°10' E 003°39'0 0.4
2018-Apr-09 11:29N 52°10' E 003°39'0 0.3
2018-Apr-09 10:59N 52°10' E 003°39'0 0.1
2018-Apr-09 10:29N 52°10' E 003°39'0 0.0
2018-Apr-09 09:59N 52°10' E 003°39'0 0.2
2018-Apr-09 09:29N 52°10' E 003°39'0 0.4
2018-Apr-09 08:47N 52°10' E 003°39'1 4.2
2018-Apr-09 08:30N 52°09' E 003°39'3 6.1
2018-Apr-09 07:58N 52°06' E 003°41'510.3
2018-Apr-09 07:31N 52°04' E 003°49'4 8.1
2018-Apr-09 07:00N 52°03' E 003°55'510.1
2018-Apr-09 06:30N 52°00' E 004°02'  
Track history (hours):
 
Tides and Currents Weather Stations Pressure Air Temp Water Temp Dewpoint Dewpoint Depression Visibility Wind Speed Wind Dir Waves Ship Positions

Antarctic

Last reported at 2018-Apr-19 06:27 UTC. Time now 2018-Apr-21 02:15 UTC.
Position N 49°16' W 004°46'.

Length 274 m; draft 17 m.

Type: Tanker. MMSI: 636015560.

Date/timePositionNaut miles runAvg speedWind from/ knotsBaromVisibWave heightAir tempDewpointWater temp
2018-Apr-19 06:27N 49°16' W 004°46'6 9.5
2018-Apr-19 05:51N 49°19' W 004°39'3 9.6
2018-Apr-19 05:30N 49°21' W 004°34'5 9.7
2018-Apr-19 05:00N 49°23' W 004°28'610.3
2018-Apr-19 04:25N 49°27' W 004°20'811.3
2018-Apr-19 03:41N 49°31' W 004°10'412.0
2018-Apr-19 03:20N 49°34' W 004°04'512.6
2018-Apr-19 02:55N 49°36' W 003°57'513.1
2018-Apr-19 02:30N 49°39' W 003°50'713.5
2018-Apr-19 02:00N 49°43' W 003°41'713.6
2018-Apr-19 01:30N 49°46' W 003°32'713.3
2018-Apr-19 01:00N 49°49' W 003°23'612.9
2018-Apr-19 00:30N 49°53' W 003°15'612.2
2018-Apr-19 00:00N 49°56' W 003°06'611.4
2018-Apr-18 23:30N 49°59' W 002°59'810.3
2018-Apr-18 22:46N 50°01' W 002°48'3 9.9
2018-Apr-18 22:28N 50°02' W 002°43'4 9.2
2018-Apr-18 22:00N 50°03' W 002°37'4 8.7
2018-Apr-18 21:30N 50°04' W 002°30'4 8.1
2018-Apr-18 20:58N 50°05' W 002°24'4 7.8
2018-Apr-18 20:27N 50°06' W 002°18'5 7.8
2018-Apr-18 19:46N 50°08' W 002°10'2 8.8
2018-Apr-18 19:30N 50°08' W 002°06'5 9.6
2018-Apr-18 19:00N 50°10' W 001°59'611.0
2018-Apr-18 18:30N 50°11' W 001°51'612.7
2018-Apr-18 18:00N 50°13' W 001°41'714.1
2018-Apr-18 17:31N 50°15' W 001°31'815.0
2018-Apr-18 17:00N 50°17' W 001°19'815.9
2018-Apr-18 16:30N 50°19' W 001°07'816.3
2018-Apr-18 16:00N 50°21' W 000°55'816.0
2018-Apr-18 15:30N 50°23' W 000°43'815.5
2018-Apr-18 15:00N 50°25' W 000°31'714.7
2018-Apr-18 14:31N 50°27' W 000°20'714.0
2018-Apr-18 14:00N 50°29' W 000°09'713.4
2018-Apr-18 13:30N 50°31' E 000°01'612.8
2018-Apr-18 13:00N 50°33' E 000°11'612.1
2018-Apr-18 12:30N 50°34' E 000°20'611.6
2018-Apr-18 12:00N 50°36' E 000°28'511.0
2018-Apr-18 11:30N 50°38' E 000°36'511.0
2018-Apr-18 11:00N 50°41' E 000°44'611.2
2018-Apr-18 10:30N 50°44' E 000°51'611.7
2018-Apr-18 10:00N 50°47' E 000°59'612.6
2018-Apr-18 09:30N 50°51' E 001°06'713.8
2018-Apr-18 09:00N 50°56' E 001°14'714.9
2018-Apr-18 08:31N 51°02' E 001°22'815.5
2018-Apr-18 08:00N 51°06' E 001°32'815.2
2018-Apr-18 07:31N 51°11' E 001°41'713.9
2018-Apr-18 07:00N 51°17' E 001°48'612.8
2018-Apr-18 06:31N 51°22' E 001°53'612.1
2018-Apr-18 06:00N 51°27' E 001°58'611.7
2018-Apr-18 05:31N 51°32' E 002°04'611.2
2018-Apr-18 05:01N 51°36' E 002°09'510.5
2018-Apr-18 04:31N 51°41' E 002°14'510.2
2018-Apr-18 03:59N 51°45' E 002°20'510.4
2018-Apr-18 03:30N 51°48' E 002°25'510.1
2018-Apr-18 03:01N 51°52' E 002°31'510.0
2018-Apr-18 02:30N 51°55' E 002°37'611.0
2018-Apr-18 01:56N 51°57' E 002°47'2411.9
2018-Apr-17 23:55N 51°59' E 003°26'512.3
2018-Apr-17 23:30N 52°00' E 003°34'613.2
2018-Apr-17 23:00N 52°01' E 003°45'510.2
2018-Apr-17 22:30N 52°02' E 003°53'5 9.8
2018-Apr-17 22:00N 52°00' E 004°00'5 9.8
2018-Apr-17 21:30N 51°58' E 004°08'2 4.6
2018-Apr-17 21:00N 51°56' E 004°10'1 2.4
2018-Apr-17 20:30N 51°56' E 004°12'0 0.1
2018-Apr-17 19:59N 51°56' E 004°12'0 0.0
2018-Apr-17 19:29N 51°56' E 004°12'0 0.0
2018-Apr-17 18:54N 51°56' E 004°12'0 0.0
2018-Apr-17 18:30N 51°56' E 004°12'0 0.0
2018-Apr-17 18:00N 51°56' E 004°12'0 0.0
2018-Apr-17 17:30N 51°56' E 004°12'0 0.0
2018-Apr-17 17:00N 51°56' E 004°12'0 0.0
2018-Apr-17 16:30N 51°56' E 004°12'0 0.0
2018-Apr-17 16:00N 51°56' E 004°12'0 0.0
2018-Apr-17 15:30N 51°56' E 004°12'0 0.0
2018-Apr-17 15:00N 51°56' E 004°12'0 0.0
2018-Apr-17 14:30N 51°56' E 004°12'0 0.0
2018-Apr-17 14:00N 51°56' E 004°12'0 0.0
2018-Apr-17 13:27N 51°56' E 004°12'0 0.0
2018-Apr-17 12:57N 51°56' E 004°12'0 0.0
2018-Apr-17 12:30N 51°56' E 004°12'0 0.0
2018-Apr-17 12:00N 51°56' E 004°12'0 0.0
2018-Apr-17 11:30N 51°56' E 004°12'0 0.0
2018-Apr-17 11:00N 51°56' E 004°12'0 0.0
2018-Apr-17 10:30N 51°56' E 004°12'0 0.0
2018-Apr-17 10:00N 51°56' E 004°12'0 0.0
2018-Apr-17 09:30N 51°56' E 004°12'0 0.0
2018-Apr-17 09:00N 51°56' E 004°12'0 0.0
2018-Apr-17 08:30N 51°56' E 004°12'0 0.0
2018-Apr-17 08:00N 51°56' E 004°12'0 0.0
2018-Apr-17 07:30N 51°56' E 004°12'0 0.0
2018-Apr-17 07:00N 51°56' E 004°12'0 0.0
2018-Apr-17 06:27N 51°56' E 004°12'0 0.0
2018-Apr-17 06:00N 51°56' E 004°12'0 0.0
2018-Apr-17 05:30N 51°56' E 004°12'0 0.0
2018-Apr-17 05:00N 51°56' E 004°12'0 0.0
2018-Apr-17 04:27N 51°56' E 004°12'0 0.0
2018-Apr-17 04:00N 51°56' E 004°12'0 0.0
2018-Apr-17 03:30N 51°56' E 004°12'0 0.0
2018-Apr-17 02:57N 51°56' E 004°12'0 0.0
2018-Apr-17 02:30N 51°56' E 004°12'0 0.0
2018-Apr-17 02:00N 51°56' E 004°12'0 0.0
2018-Apr-17 01:30N 51°56' E 004°12'0 0.0
2018-Apr-17 01:00N 51°56' E 004°12'0 0.0
2018-Apr-17 00:30N 51°56' E 004°12'0 0.0
2018-Apr-17 00:00N 51°56' E 004°12'0 0.0
2018-Apr-16 23:30N 51°56' E 004°12'0 0.0
2018-Apr-16 23:00N 51°56' E 004°12'0 0.0
2018-Apr-16 22:27N 51°56' E 004°12'0 0.0
2018-Apr-16 22:00N 51°56' E 004°12'0 0.0
2018-Apr-16 21:30N 51°56' E 004°12'0 0.0
2018-Apr-16 21:00N 51°56' E 004°12'0 0.0
2018-Apr-16 20:30N 51°56' E 004°12'0 0.0
2018-Apr-16 20:00N 51°56' E 004°12'0 0.0
2018-Apr-16 19:27N 51°56' E 004°12'0 0.0
2018-Apr-16 19:00N 51°56' E 004°12'0 0.0
2018-Apr-16 18:30N 51°56' E 004°12'0 0.0
2018-Apr-16 18:00N 51°56' E 004°12'0 0.0
2018-Apr-16 17:30N 51°56' E 004°12'0 0.0
2018-Apr-16 17:00N 51°56' E 004°12'0 0.0
2018-Apr-16 16:30N 51°56' E 004°12'0 0.0
2018-Apr-16 16:00N 51°56' E 004°12'0 0.0
2018-Apr-16 15:30N 51°56' E 004°12'0 0.0
2018-Apr-16 14:57N 51°56' E 004°12'0 0.0
2018-Apr-16 14:30N 51°56' E 004°12'0 0.0
2018-Apr-16 14:00N 51°56' E 004°12'0 0.0
2018-Apr-16 13:30N 51°56' E 004°12'0 0.0
2018-Apr-16 12:57N 51°56' E 004°12'0 0.0
2018-Apr-16 12:30N 51°56' E 004°12'0 0.0
2018-Apr-16 12:00N 51°56' E 004°12'0 0.0
2018-Apr-16 11:30N 51°56' E 004°12'0 0.0
2018-Apr-16 11:00N 51°56' E 004°12'0 0.0
2018-Apr-16 10:30N 51°56' E 004°12'0 0.0
2018-Apr-16 10:00N 51°56' E 004°12'0 0.0
2018-Apr-16 09:30N 51°56' E 004°12'0 0.0
2018-Apr-16 09:00N 51°56' E 004°12'0 0.0
2018-Apr-16 08:30N 51°56' E 004°12'0 0.0
2018-Apr-16 08:00N 51°56' E 004°12'0 0.0
2018-Apr-16 07:30N 51°56' E 004°12'0 0.0
2018-Apr-16 07:00N 51°56' E 004°12'0 0.0
2018-Apr-16 06:30N 51°56' E 004°12'0 0.0
2018-Apr-16 06:00N 51°56' E 004°12'0 0.0
2018-Apr-16 05:30N 51°56' E 004°12'0 0.0
2018-Apr-16 05:00N 51°56' E 004°12'0 0.1
2018-Apr-16 04:30N 51°56' E 004°12'1 1.3
2018-Apr-16 04:00N 51°56' E 004°11'4 8.1
2018-Apr-16 03:30N 51°58' E 004°06'2 4.9
2018-Apr-16 03:01N 51°60' E 004°02'5 9.2
2018-Apr-16 02:30N 51°58' E 004°09'3 6.9
2018-Apr-16 02:00N 51°56' E 004°14'3 5.5
2018-Apr-16 01:30N 51°54' E 004°17'3 5.0
2018-Apr-16 01:00N 51°54' E 004°21'0 0.5
2018-Apr-16 00:29N 51°54' E 004°22'0 0.0
2018-Apr-15 23:59N 51°54' E 004°22'0 0.0
2018-Apr-15 23:29N 51°54' E 004°22'0 0.0
2018-Apr-15 22:59N 51°54' E 004°22'0 0.0
2018-Apr-15 22:29N 51°54' E 004°22'0 0.0
2018-Apr-15 22:00N 51°54' E 004°22'0 0.0
2018-Apr-15 21:30N 51°54' E 004°22'0 0.0
2018-Apr-15 21:00N 51°54' E 004°22'0 0.0
2018-Apr-15 20:30N 51°54' E 004°22'0 0.0
2018-Apr-15 20:00N 51°54' E 004°22'0 0.0
2018-Apr-15 19:30N 51°54' E 004°22'0 0.0
2018-Apr-15 19:00N 51°54' E 004°22'0 0.0
2018-Apr-15 18:30N 51°54' E 004°22'0 0.0
2018-Apr-15 18:00N 51°54' E 004°22'0 0.0
2018-Apr-15 17:30N 51°54' E 004°22'0 0.0
2018-Apr-15 17:01N 51°54' E 004°22'0 0.0
2018-Apr-15 16:00N 51°54' E 004°22'0 0.0
2018-Apr-15 15:30N 51°54' E 004°22'0 0.0
2018-Apr-15 15:00N 51°54' E 004°22'0 0.0
2018-Apr-15 14:31N 51°54' E 004°22'0 0.0
2018-Apr-15 14:00N 51°54' E 004°22'0 0.0
2018-Apr-15 13:30N 51°54' E 004°22'0 0.0
2018-Apr-15 13:00N 51°54' E 004°22'0 0.0
2018-Apr-15 12:30N 51°54' E 004°22'0 0.0
2018-Apr-15 12:00N 51°54' E 004°22'0 0.0
2018-Apr-15 11:31N 51°54' E 004°22'0 0.0
2018-Apr-15 11:00N 51°54' E 004°22'0 0.0
2018-Apr-15 10:30N 51°54' E 004°22'0 0.0
2018-Apr-15 10:00N 51°54' E 004°22'0 0.0
2018-Apr-15 09:30N 51°54' E 004°22'0 0.0
2018-Apr-15 09:00N 51°54' E 004°22'0 0.0
2018-Apr-15 08:30N 51°54' E 004°22'0 0.0
2018-Apr-15 08:00N 51°54' E 004°22'0 0.0
2018-Apr-15 07:31N 51°54' E 004°22'0 0.0
2018-Apr-15 07:00N 51°54' E 004°22'0 0.0
2018-Apr-15 06:30N 51°54' E 004°22'0 0.0
2018-Apr-15 06:01N 51°54' E 004°22'0 0.0
2018-Apr-15 05:30N 51°54' E 004°22'0 0.0
2018-Apr-15 05:01N 51°54' E 004°22'0 0.0
2018-Apr-15 04:29N 51°54' E 004°22'0 0.0
2018-Apr-15 04:00N 51°54' E 004°22'0 0.0
2018-Apr-15 03:30N 51°54' E 004°22'0 0.0
2018-Apr-15 03:01N 51°54' E 004°22'0 0.0
2018-Apr-15 02:30N 51°54' E 004°22'0 0.0
2018-Apr-15 02:01N 51°54' E 004°22'0 0.0
2018-Apr-15 01:30N 51°54' E 004°22'0 0.0
2018-Apr-15 01:00N 51°54' E 004°22'0 0.0
2018-Apr-15 00:30N 51°54' E 004°22'0 0.0
2018-Apr-15 00:01N 51°54' E 004°22'0 0.0
2018-Apr-14 23:30N 51°54' E 004°22'0 0.0
2018-Apr-14 23:00N 51°54' E 004°22'0 0.0
2018-Apr-14 22:30N 51°54' E 004°22'0 0.0
2018-Apr-14 22:00N 51°54' E 004°22'0 0.0
2018-Apr-14 21:30N 51°54' E 004°22'0 0.0
2018-Apr-14 21:00N 51°54' E 004°22'0 0.0
2018-Apr-14 20:31N 51°54' E 004°22'0 0.0
2018-Apr-14 20:00N 51°54' E 004°22'0 0.0
2018-Apr-14 19:30N 51°54' E 004°22'0 0.0
2018-Apr-14 19:00N 51°54' E 004°22'0 0.0
2018-Apr-14 18:30N 51°54' E 004°22'0 0.0
2018-Apr-14 18:00N 51°54' E 004°22'0 0.0
2018-Apr-14 17:30N 51°54' E 004°22'0 0.0
2018-Apr-14 17:00N 51°54' E 004°22'0 0.0
2018-Apr-14 16:30N 51°54' E 004°22'0 0.0
2018-Apr-14 16:00N 51°54' E 004°22'0 0.1
2018-Apr-14 15:30N 51°54' E 004°21'0 0.9
2018-Apr-14 15:00N 51°54' E 004°21'3 5.5
2018-Apr-14 14:31N 51°54' E 004°16'3 5.8
2018-Apr-14 14:01N 51°56' E 004°13'3 6.5
2018-Apr-14 13:30N 51°58' E 004°09'3 6.0
2018-Apr-14 13:00N 51°59' E 004°04'3 5.2
2018-Apr-14 12:30N 52°00' E 004°00'3 6.2
2018-Apr-14 12:00N 51°59' E 004°05'4 8.8
2018-Apr-14 11:30N 51°56' E 004°11'2 3.6
2018-Apr-14 11:00N 51°55' E 004°13'0 0.0
2018-Apr-14 10:28N 51°55' E 004°13'0 0.0
2018-Apr-14 09:58N 51°55' E 004°13'0 0.0
2018-Apr-14 09:31N 51°55' E 004°13'0 0.0
2018-Apr-14 09:01N 51°55' E 004°13'0 0.0
2018-Apr-14 08:31N 51°55' E 004°13'0 0.0
2018-Apr-14 08:00N 51°55' E 004°13'0 0.0
2018-Apr-14 07:30N 51°55' E 004°13'0 0.0
2018-Apr-14 07:01N 51°55' E 004°13'0 0.0
2018-Apr-14 06:30N 51°55' E 004°13'0 0.0
2018-Apr-14 06:00N 51°55' E 004°13'0 0.0
2018-Apr-14 05:30N 51°55' E 004°13'0 0.0
2018-Apr-14 05:01N 51°55' E 004°13'0 0.0
2018-Apr-14 04:31N 51°55' E 004°13'0 0.0
2018-Apr-14 04:00N 51°55' E 004°13'0 0.0
2018-Apr-14 03:30N 51°55' E 004°13'0 0.0
2018-Apr-14 03:00N 51°55' E 004°13'0 0.0
2018-Apr-14 02:30N 51°55' E 004°13'0 0.0
2018-Apr-14 02:01N 51°55' E 004°13'0 0.0
2018-Apr-14 01:31N 51°55' E 004°13'0 0.0
2018-Apr-14 01:00N 51°55' E 004°13'0 0.0
2018-Apr-14 00:30N 51°55' E 004°13'0 0.0
2018-Apr-14 00:00N 51°55' E 004°13'0 0.0
2018-Apr-13 23:31N 51°55' E 004°13'0 0.0
2018-Apr-13 23:00N 51°55' E 004°13'0 0.0
2018-Apr-13 22:30N 51°55' E 004°13'0 0.0
2018-Apr-13 22:01N 51°55' E 004°13'0 0.0
2018-Apr-13 21:30N 51°55' E 004°13'0 0.0
2018-Apr-13 21:00N 51°55' E 004°13'0 0.0
2018-Apr-13 20:01N 51°55' E 004°13'0 0.0
2018-Apr-13 19:00N 51°55' E 004°13'0 0.0
2018-Apr-13 18:00N 51°55' E 004°13'0 0.0
2018-Apr-13 17:30N 51°55' E 004°13'0 0.0
2018-Apr-13 17:01N 51°55' E 004°13'0 0.0
2018-Apr-13 16:30N 51°55' E 004°13'0 0.0
2018-Apr-13 16:00N 51°55' E 004°13'0 0.0
2018-Apr-13 15:00N 51°55' E 004°13'0 0.0
2018-Apr-13 14:00N 51°55' E 004°13'0 0.0
2018-Apr-13 12:30N 51°55' E 004°13'0 0.0
2018-Apr-13 12:00N 51°55' E 004°13'0 0.0
2018-Apr-13 11:30N 51°55' E 004°13'0 0.0
2018-Apr-13 10:30N 51°55' E 004°13'0 0.0
2018-Apr-13 10:00N 51°55' E 004°13'0 0.0
2018-Apr-13 09:30N 51°55' E 004°13'0 0.0
2018-Apr-13 09:00N 51°55' E 004°13'0 0.0
2018-Apr-13 08:30N 51°55' E 004°13'0 0.0
2018-Apr-13 08:01N 51°55' E 004°13'0 0.0
2018-Apr-13 07:31N 51°55' E 004°13'0 0.0
2018-Apr-13 07:00N 51°55' E 004°13'0 0.0
2018-Apr-13 06:30N 51°55' E 004°13'0 0.0
2018-Apr-13 06:00N 51°55' E 004°13'0 0.0
2018-Apr-13 05:30N 51°55' E 004°13'0 0.0
2018-Apr-13 05:00N 51°55' E 004°13'0 0.0
2018-Apr-13 04:30N 51°55' E 004°13'0 0.0
2018-Apr-13 04:00N 51°55' E 004°13'0 0.0
2018-Apr-13 03:30N 51°55' E 004°13'0 0.0
2018-Apr-13 03:01N 51°55' E 004°13'0 0.0
2018-Apr-13 02:30N 51°55' E 004°13'0 0.0
2018-Apr-13 02:00N 51°55' E 004°13'0 0.0
2018-Apr-13 01:30N 51°55' E 004°13'0 0.0
2018-Apr-13 01:01N 51°55' E 004°13'0 0.0
2018-Apr-13 00:31N 51°55' E 004°13'0 0.0
2018-Apr-13 00:00N 51°55' E 004°13'0 0.0
2018-Apr-12 23:31N 51°55' E 004°13'0 0.0
2018-Apr-12 23:00N 51°55' E 004°13'0 0.0
2018-Apr-12 22:30N 51°55' E 004°13'0 0.0
2018-Apr-12 21:59N 51°55' E 004°13'0 0.0
2018-Apr-12 21:31N 51°55' E 004°13'0 0.0
2018-Apr-12 21:00N 51°55' E 004°13'0 0.0
2018-Apr-12 20:31N 51°55' E 004°13'0 0.0
2018-Apr-12 20:00N 51°55' E 004°13'0 0.0
2018-Apr-12 19:31N 51°55' E 004°13'0 0.0
2018-Apr-12 19:01N 51°55' E 004°13'0 0.0
2018-Apr-12 18:31N 51°55' E 004°13'0 0.0
2018-Apr-12 18:00N 51°55' E 004°13'0 0.0
2018-Apr-12 17:30N 51°55' E 004°13'0 0.0
2018-Apr-12 17:01N 51°55' E 004°13'0 0.0
2018-Apr-12 16:31N 51°55' E 004°13'0 0.0
2018-Apr-12 16:00N 51°55' E 004°13'0 0.0
2018-Apr-12 15:30N 51°55' E 004°13'0 0.0
2018-Apr-12 15:00N 51°55' E 004°13'0 0.0
2018-Apr-12 14:30N 51°55' E 004°13'0 0.0
2018-Apr-12 14:00N 51°55' E 004°13'0 0.0
2018-Apr-12 13:31N 51°55' E 004°13'0 0.0
2018-Apr-12 13:01N 51°55' E 004°13'0 0.0
2018-Apr-12 12:30N 51°55' E 004°13'0 0.0
2018-Apr-12 12:01N 51°55' E 004°13'0 0.0
2018-Apr-12 11:31N 51°55' E 004°13'0 0.0
2018-Apr-12 11:00N 51°55' E 004°13'0 0.0
2018-Apr-12 10:30N 51°55' E 004°13'0 0.0
2018-Apr-12 10:00N 51°55' E 004°13'0 0.0
2018-Apr-12 09:30N 51°55' E 004°13'0 0.0
2018-Apr-12 09:01N 51°55' E 004°13'0 0.0
2018-Apr-12 08:30N 51°55' E 004°13'0 0.0
2018-Apr-12 08:01N 51°55' E 004°13'0 0.0
2018-Apr-12 07:31N 51°55' E 004°13'0 0.0
2018-Apr-12 07:00N 51°55' E 004°13'0 0.0
2018-Apr-12 06:30N 51°55' E 004°13'0 0.0
2018-Apr-12 06:01N 51°55' E 004°13'0 0.0
2018-Apr-12 05:30N 51°55' E 004°13'0 0.0
2018-Apr-12 05:01N 51°55' E 004°13'0 0.0
2018-Apr-12 04:31N 51°55' E 004°13'0 0.0
2018-Apr-12 04:00N 51°55' E 004°13'0 0.0
2018-Apr-12 03:30N 51°55' E 004°13'0 0.0
2018-Apr-12 03:00N 51°55' E 004°13'0 0.0
2018-Apr-12 02:31N 51°55' E 004°13'0 0.0
2018-Apr-12 02:01N 51°55' E 004°13'0 0.0
2018-Apr-12 01:31N 51°55' E 004°13'0 0.0
2018-Apr-12 01:01N 51°55' E 004°13'0 0.1
2018-Apr-12 00:31N 51°55' E 004°13'0 0.8
2018-Apr-12 00:00N 51°55' E 004°12'2 4.3
2018-Apr-11 23:30N 51°57' E 004°10'3 5.8
2018-Apr-11 23:00N 51°58' E 004°06'611.9
2018-Apr-11 22:30N 52°00' E 003°57'611.9
2018-Apr-11 22:00N 52°02' E 003°47'510.6
2018-Apr-11 21:30N 52°07' E 003°43'4 8.8
2018-Apr-11 21:00N 52°10' E 003°39'0 0.3
2018-Apr-11 20:29N 52°10' E 003°39'0 0.1
2018-Apr-11 19:59N 52°10' E 003°39'0 0.0
2018-Apr-11 19:29N 52°10' E 003°39'0 0.0
2018-Apr-11 18:59N 52°10' E 003°39'0 0.0
2018-Apr-11 18:29N 52°10' E 003°39'0 0.0
2018-Apr-11 17:59N 52°10' E 003°39'0 0.0
2018-Apr-11 17:26N 52°10' E 003°39'0 0.0
2018-Apr-11 16:56N 52°10' E 003°39'0 0.0
2018-Apr-11 16:29N 52°10' E 003°39'0 0.0
2018-Apr-11 15:59N 52°10' E 003°39'0 0.1
2018-Apr-11 15:29N 52°10' E 003°39'0 0.1
2018-Apr-11 14:56N 52°10' E 003°39'0 0.3
2018-Apr-11 14:17N 52°10' E 003°39'0 0.3
2018-Apr-11 13:59N 52°10' E 003°39'0 0.1
2018-Apr-11 13:29N 52°10' E 003°39'0 0.1
2018-Apr-11 12:47N 52°10' E 003°39'0 0.0
2018-Apr-11 12:23N 52°10' E 003°39'0 0.0
2018-Apr-11 11:56N 52°10' E 003°39'0 0.1
2018-Apr-11 11:29N 52°10' E 003°39'0 0.1
2018-Apr-11 10:56N 52°10' E 003°39'0 0.0
2018-Apr-11 10:26N 52°10' E 003°39'0 0.4
2018-Apr-11 09:56N 52°10' E 003°39'0 0.3
2018-Apr-11 09:29N 52°10' E 003°39'0 0.1
2018-Apr-11 08:59N 52°10' E 003°39'0 0.0
2018-Apr-11 08:29N 52°10' E 003°39'0 0.0
2018-Apr-11 07:59N 52°10' E 003°39'0 0.0
2018-Apr-11 07:26N 52°10' E 003°39'0 0.0
2018-Apr-11 06:59N 52°10' E 003°39'0 0.0
2018-Apr-11 06:26N 52°10' E 003°39'0 0.0
2018-Apr-11 05:56N 52°10' E 003°39'0 0.0
2018-Apr-11 05:29N 52°10' E 003°39'0 0.0
2018-Apr-11 04:59N 52°10' E 003°39'0 0.0
2018-Apr-11 04:29N 52°10' E 003°39'0 0.1
2018-Apr-11 03:59N 52°10' E 003°39'0 0.0
2018-Apr-11 03:29N 52°10' E 003°39'0 0.0
2018-Apr-11 02:59N 52°10' E 003°39'0 0.1
2018-Apr-11 02:20N 52°10' E 003°39'0 0.2
2018-Apr-11 01:50N 52°10' E 003°39'0 0.3
2018-Apr-11 01:26N 52°10' E 003°39'0 0.2
2018-Apr-11 00:59N 52°10' E 003°39'0 0.0
2018-Apr-11 00:26N 52°10' E 003°39'0 0.0
2018-Apr-10 23:59N 52°10' E 003°39'0 0.3
2018-Apr-10 23:29N 52°10' E 003°39'0 0.2
2018-Apr-10 22:56N 52°10' E 003°39'0 0.1
2018-Apr-10 22:29N 52°10' E 003°39'0 0.1
2018-Apr-10 21:59N 52°10' E 003°39'0 0.0
2018-Apr-10 21:29N 52°10' E 003°39'0 0.2
2018-Apr-10 20:59N 52°10' E 003°39'0 0.2
2018-Apr-10 20:29N 52°10' E 003°39'0 0.1
2018-Apr-10 19:53N 52°10' E 003°39'0 0.0
2018-Apr-10 19:29N 52°10' E 003°39'0 0.1
2018-Apr-10 18:59N 52°10' E 003°39'0 0.0
2018-Apr-10 18:29N 52°10' E 003°39'0 0.0
2018-Apr-10 17:59N 52°10' E 003°39'0 0.0
2018-Apr-10 17:29N 52°10' E 003°39'0 0.0
2018-Apr-10 16:59N 52°10' E 003°39'0 0.1
2018-Apr-10 16:29N 52°10' E 003°39'0 0.0
2018-Apr-10 15:59N 52°10' E 003°39'0 0.1
2018-Apr-10 15:26N 52°10' E 003°39'0 0.1
2018-Apr-10 14:59N 52°10' E 003°39'0 0.1
2018-Apr-10 14:29N 52°10' E 003°39'0 0.1
2018-Apr-10 13:59N 52°10' E 003°39'0 0.1
2018-Apr-10 13:29N 52°10' E 003°39'0 0.2
2018-Apr-10 12:59N 52°10' E 003°39'0 0.2
2018-Apr-10 12:29N 52°10' E 003°39'0 0.0
2018-Apr-10 11:59N 52°10' E 003°39'0 0.0
2018-Apr-10 11:29N 52°10' E 003°39'0 0.0
2018-Apr-10 10:56N 52°10' E 003°39'0 0.0
2018-Apr-10 10:02N 52°10' E 003°39'0 0.0
2018-Apr-10 09:59N 52°10' E 003°39'0 0.0
2018-Apr-10 09:23N 52°10' E 003°39'0 0.0
2018-Apr-10 08:53N 52°10' E 003°39'0 0.0
2018-Apr-10 08:29N 52°10' E 003°39'0 0.1
2018-Apr-10 07:59N 52°10' E 003°39'0 0.4
2018-Apr-10 07:29N 52°10' E 003°39'0 0.2
2018-Apr-10 06:56N 52°10' E 003°39'0 0.1
2018-Apr-10 06:29N 52°10' E 003°39'0 0.0
2018-Apr-10 05:59N 52°10' E 003°39'0 0.1
2018-Apr-10 05:29N 52°10' E 003°39'0 0.0
2018-Apr-10 04:59N 52°10' E 003°39'0 0.0
2018-Apr-10 04:29N 52°10' E 003°39'0 0.0
2018-Apr-10 03:59N 52°10' E 003°39'0 0.0
2018-Apr-10 03:29N 52°10' E 003°39'0 0.0
2018-Apr-10 02:59N 52°10' E 003°39'0 0.0
2018-Apr-10 02:29N 52°10' E 003°39'0 0.0
2018-Apr-10 01:59N 52°10' E 003°39'0 0.0
2018-Apr-10 01:29N 52°10' E 003°39'0 0.1
2018-Apr-10 00:59N 52°10' E 003°39'0 0.1
2018-Apr-10 00:29N 52°10' E 003°39'0 0.0
2018-Apr-09 23:59N 52°10' E 003°39'0 0.1
2018-Apr-09 23:29N 52°10' E 003°39'0 0.1
2018-Apr-09 22:59N 52°10' E 003°39'0 0.1
2018-Apr-09 22:29N 52°10' E 003°39'0 0.0
2018-Apr-09 21:59N 52°10' E 003°39'0 0.1
2018-Apr-09 21:29N 52°10' E 003°39'0 0.1
2018-Apr-09 20:59N 52°10' E 003°39'0 0.1
2018-Apr-09 20:29N 52°10' E 003°39'0 0.1
2018-Apr-09 19:59N 52°10' E 003°39'0 0.2
2018-Apr-09 19:29N 52°10' E 003°38'0 0.2
2018-Apr-09 18:59N 52°10' E 003°39'0 0.0
2018-Apr-09 18:20N 52°10' E 003°39'0 0.0
2018-Apr-09 17:56N 52°10' E 003°39'0 0.0
2018-Apr-09 17:29N 52°10' E 003°39'0 0.0
2018-Apr-09 16:59N 52°10' E 003°39'0 0.0
2018-Apr-09 16:29N 52°10' E 003°39'0 0.0
2018-Apr-09 15:50N 52°10' E 003°39'0 0.0
2018-Apr-09 15:26N 52°10' E 003°39'0 0.0
2018-Apr-09 14:56N 52°10' E 003°39'0 0.0
2018-Apr-09 14:29N 52°10' E 003°39'0 0.0
2018-Apr-09 13:59N 52°10' E 003°39'0 0.0
2018-Apr-09 13:29N 52°10' E 003°39'0 0.0
2018-Apr-09 12:59N 52°10' E 003°39'0 0.0
2018-Apr-09 12:23N 52°10' E 003°39'0 0.0
2018-Apr-09 11:59N 52°10' E 003°39'0 0.4
2018-Apr-09 11:29N 52°10' E 003°39'0 0.3
2018-Apr-09 10:59N 52°10' E 003°39'0 0.1
2018-Apr-09 10:29N 52°10' E 003°39'0 0.0
2018-Apr-09 09:59N 52°10' E 003°39'0 0.2
2018-Apr-09 09:29N 52°10' E 003°39'0 0.4
2018-Apr-09 08:47N 52°10' E 003°39'1 4.2
2018-Apr-09 08:30N 52°09' E 003°39'3 6.1
2018-Apr-09 07:58N 52°06' E 003°41'510.3
2018-Apr-09 07:31N 52°04' E 003°49'4 8.1
2018-Apr-09 07:00N 52°03' E 003°55'510.1
2018-Apr-09 06:30N 52°00' E 004°02'  

Dump ship's entire track history